Sun, 11 Apr 2021 04:49:34 UTC

Information for RPM brotli-1.0.7-14.eln103.x86_64.rpm

ID22840329
Namebrotli
Version1.0.7
Release14.eln103
Epoch
Archx86_64
SummaryLossless compression algorithm
DescriptionBrotli is a generic-purpose lossless compression algorithm that compresses data using a combination of a modern variant of the LZ77 algorithm, Huffman coding and 2nd order context modeling, with a compression ratio comparable to the best currently available general-purpose compression methods. It is similar in speed with deflate but offers more dense compression.
Build Time2020-08-14 03:46:52 GMT
Size322,345
86ebcdef2bf396c04baf119e81adce06
LicenseMIT
Buildrooteln-build-22187703-1884979
Provides
brotli = 1.0.7-14.eln103
brotli(x86-64) = 1.0.7-14.eln103
Obsoletes No Obsoletes
Conflicts No Conflicts
Requires
libbrotli(x86-64) = 1.0.7-14.eln103
libc.so.6()(64bit)
libc.so.6(GLIBC_2.14)(64bit)
libc.so.6(GLIBC_2.2.5)(64bit)
libc.so.6(GLIBC_2.3.4)(64bit)
libc.so.6(GLIBC_2.4)(64bit)
libm.so.6()(64bit)
libm.so.6(GLIBC_2.29)(64bit)
rpmlib(CompressedFileNames) <= 3.0.4-1
rpmlib(FileDigests) <= 4.6.0-1
rpmlib(PayloadFilesHavePrefix) <= 4.0-1
rpmlib(PayloadIsZstd) <= 5.4.18-1
rtld(GNU_HASH)
Recommends No Recommends
Suggests No Suggests
Supplements No Supplements
Enhances No Enhances
Files
1 through 4 of 4
Name ascending sort Size
/usr/bin/brotli744,104
/usr/lib/.build-id0
/usr/lib/.build-id/330
/usr/lib/.build-id/33/b05eb1ce2de5f4662aaf07dec4f985f7fddc3126
Component of
Page:
1 through 50 of 446 >>>
Buildroot descending sort Created State
eln-build-23111796-2171109 2020-09-30 18:44:14 expired
eln-build-23111621-2170959 2020-09-30 18:14:17 expired
eln-build-23111400-2170780 2020-09-30 17:42:40 expired
eln-build-23111218-2170526 2020-09-30 17:14:49 expired
eln-build-23110397-2169997 2020-09-30 15:40:42 expired
eln-build-23110171-2169912 2020-09-30 15:15:36 expired
eln-build-23110121-2169912 2020-09-30 15:12:27 expired
eln-build-23109470-2169423 2020-09-30 13:41:30 expired
eln-build-23109462-2169423 2020-09-30 13:41:10 expired
eln-build-23109255-2169259 2020-09-30 13:14:16 expired
eln-build-23109245-2169259 2020-09-30 13:13:39 expired
eln-build-23109218-2169259 2020-09-30 13:12:26 expired
eln-build-23108995-2169090 2020-09-30 12:41:59 expired
eln-build-23108678-2169062 2020-09-30 12:12:35 expired
eln-build-23108659-2169062 2020-09-30 12:11:54 expired
eln-build-23108436-2168892 2020-09-30 11:42:12 expired
eln-build-23108265-2168816 2020-09-30 11:15:03 expired
eln-build-23107924-2168689 2020-09-30 10:42:06 expired
eln-build-23106949-2168636 2020-09-30 09:49:17 expired
eln-build-23105960-2168510 2020-09-30 09:11:05 expired
eln-build-23105195-2168287 2020-09-30 08:42:56 expired
eln-build-23104737-2168135 2020-09-30 08:11:43 expired
eln-build-23103670-2168135 2020-09-30 07:40:48 expired
eln-build-23101806-2168034 2020-09-30 06:41:25 expired
eln-build-23099825-2167948 2020-09-30 05:40:48 expired
eln-build-23099810-2167948 2020-09-30 05:40:28 expired
eln-build-23098005-2167801 2020-09-30 04:11:47 expired
eln-build-23097592-2167801 2020-09-30 03:41:19 expired
eln-build-23096395-2167634 2020-09-30 02:11:26 expired
eln-build-23096390-2167634 2020-09-30 02:11:24 expired
eln-build-23096369-2167634 2020-09-30 02:11:14 expired
eln-build-23094917-2167378 2020-09-30 00:42:50 expired
eln-build-23094908-2167378 2020-09-30 00:42:28 expired
eln-build-23094895-2167378 2020-09-30 00:42:03 expired
eln-build-23093866-2167108 2020-09-29 23:13:19 expired
eln-build-23093595-2167025 2020-09-29 22:43:04 expired
eln-build-23093580-2167025 2020-09-29 22:41:28 expired
eln-build-23092123-2166788 2020-09-29 20:40:32 expired
eln-build-23092113-2166788 2020-09-29 20:40:30 expired
eln-build-23091800-2166589 2020-09-29 20:12:01 expired
eln-build-23090949-2166062 2020-09-29 18:49:04 expired
eln-build-23090816-2166009 2020-09-29 18:42:16 expired
eln-build-23090489-2165833 2020-09-29 18:10:34 expired
eln-build-23089963-2165630 2020-09-29 16:41:57 expired
eln-build-23089789-2165413 2020-09-29 16:22:41 expired
eln-build-23089678-2165413 2020-09-29 16:10:56 expired
eln-build-23089677-2165413 2020-09-29 16:10:56 expired
eln-build-23089664-2165413 2020-09-29 16:10:37 expired
eln-build-23089186-2165371 2020-09-29 15:41:20 expired
eln-build-23089184-2165371 2020-09-29 15:41:09 expired